createdAt,value
2023-04-13T00:00:11.957Z,7.68
2023-04-13T00:01:13.909Z,7.57
2023-04-13T00:02:16.656Z,7.63
2023-04-13T00:03:22.783Z,7.71
2023-04-13T00:04:27.774Z,7.92
2023-04-13T00:05:30.839Z,8.00
2023-04-13T00:06:33.142Z,7.97
2023-04-13T00:07:38.595Z,7.95
2023-04-13T00:08:42.941Z,8.07
2023-04-13T00:09:47.628Z,8.16
2023-04-13T00:10:51.031Z,8.23
2023-04-13T00:11:58.137Z,8.20
2023-04-13T00:13:01.568Z,8.42
2023-04-13T00:14:06.757Z,8.48
2023-04-13T00:15:09.818Z,8.47
2023-04-13T00:16:13.913Z,8.60
2023-04-13T00:17:15.642Z,8.65
2023-04-13T00:18:18.913Z,8.77
2023-04-13T00:19:20.584Z,8.91
2023-04-13T00:20:26.019Z,8.88
2023-04-13T00:21:27.989Z,8.66
2023-04-13T00:22:30.957Z,8.72
2023-04-13T00:23:36.191Z,8.76
2023-04-13T00:24:39.070Z,8.49
2023-04-13T00:25:40.838Z,8.42
2023-04-13T00:26:44.982Z,8.29
2023-04-13T00:27:46.976Z,8.28
2023-04-13T00:28:49.802Z,8.36
2023-04-13T00:29:51.867Z,8.47
2023-04-13T00:30:55.754Z,8.61
2023-04-13T00:31:57.655Z,8.62
2023-04-13T00:33:01.330Z,8.60
2023-04-13T00:34:04.567Z,8.57
2023-04-13T00:35:09.782Z,8.53
2023-04-13T00:36:13.313Z,8.37
2023-04-13T00:37:20.152Z,8.25
2023-04-13T00:38:24.428Z,8.35
2023-04-13T00:39:31.302Z,8.45
2023-04-13T00:40:33.185Z,7.80
2023-04-13T00:41:36.086Z,8.06
2023-04-13T00:42:38.421Z,7.99
2023-04-13T00:43:41.247Z,7.75
2023-04-13T00:44:42.908Z,7.86
2023-04-13T00:45:45.639Z,7.98
2023-04-13T00:46:48.292Z,7.99
2023-04-13T00:47:52.191Z,8.05
2023-04-13T00:48:55.826Z,8.22
2023-04-13T00:50:03.868Z,8.29
2023-04-13T00:51:05.980Z,8.07
2023-04-13T00:52:12.184Z,8.08
2023-04-13T00:53:14.248Z,7.96
2023-04-13T00:54:19.198Z,7.68
2023-04-13T00:55:22.081Z,7.71
2023-04-13T00:56:27.549Z,7.91
2023-04-13T00:57:29.844Z,7.76
2023-04-13T00:58:33.982Z,7.69
2023-04-13T00:59:40.569Z,7.69
2023-04-13T01:00:46.409Z,7.96
2023-04-13T01:01:50.997Z,7.56
2023-04-13T01:02:55.062Z,7.25
2023-04-13T01:03:59.927Z,7.03
2023-04-13T01:05:07.676Z,7.15
2023-04-13T01:06:17.881Z,7.40
2023-04-13T01:07:28.921Z,7.36
2023-04-13T01:08:38.300Z,7.20
2023-04-13T01:09:46.583Z,7.14
2023-04-13T01:10:56.917Z,7.12
2023-04-13T01:12:08.595Z,7.36
2023-04-13T01:13:18.625Z,7.22
2023-04-13T01:14:29.217Z,7.27
2023-04-13T01:15:37.090Z,7.48
2023-04-13T01:16:44.226Z,7.53
2023-04-13T01:17:52.247Z,7.52
2023-04-13T01:18:57.166Z,7.64
2023-04-13T01:20:01.773Z,7.68
2023-04-13T01:21:06.848Z,7.66
2023-04-13T01:22:14.550Z,7.68
2023-04-13T01:23:29.180Z,7.56
2023-04-13T01:24:41.949Z,7.56
2023-04-13T01:25:52.678Z,7.67
2023-04-13T01:26:58.368Z,7.67
2023-04-13T01:28:05.759Z,7.82
2023-04-13T01:29:07.606Z,7.69
2023-04-13T01:30:11.783Z,7.28
2023-04-13T01:31:15.678Z,7.45
2023-04-13T01:32:21.474Z,7.61
2023-04-13T01:33:25.515Z,7.69
2023-04-13T01:34:28.521Z,7.42
2023-04-13T01:35:31.034Z,7.23
2023-04-13T01:36:35.235Z,7.11
2023-04-13T01:37:37.837Z,6.88
2023-04-13T01:38:40.983Z,6.80
2023-04-13T01:39:42.979Z,6.85
2023-04-13T01:40:47.211Z,6.91
2023-04-13T01:41:49.278Z,7.02
2023-04-13T01:42:52.502Z,6.81
2023-04-13T01:43:57.316Z,6.92
2023-04-13T01:45:01.615Z,7.12
2023-04-13T01:46:08.036Z,7.31
2023-04-13T01:47:18.079Z,7.51
2023-04-13T01:48:25.139Z,7.63
2023-04-13T01:49:33.805Z,7.73
2023-04-13T01:50:39.394Z,7.54
2023-04-13T01:51:45.369Z,7.44
2023-04-13T01:52:48.038Z,7.70
2023-04-13T01:53:57.776Z,7.85
2023-04-13T01:55:01.224Z,7.94
2023-04-13T01:56:05.843Z,7.73
2023-04-13T01:57:08.960Z,7.85
2023-04-13T01:58:14.459Z,7.77
2023-04-13T01:59:18.170Z,7.66
2023-04-13T02:00:21.729Z,7.69
2023-04-13T02:01:24.077Z,7.84
2023-04-13T02:02:27.031Z,8.02
2023-04-13T02:03:30.557Z,8.22
2023-04-13T02:04:33.715Z,7.92
2023-04-13T02:05:36.964Z,7.94
2023-04-13T02:06:41.000Z,7.86
2023-04-13T02:07:44.825Z,8.02
2023-04-13T02:08:49.555Z,8.10
2023-04-13T02:09:56.058Z,8.23
2023-04-13T02:10:58.882Z,8.25
2023-04-13T02:12:10.016Z,8.36
2023-04-13T02:13:13.519Z,8.26
2023-04-13T02:14:15.807Z,8.23
2023-04-13T02:15:20.810Z,8.17
2023-04-13T02:16:22.496Z,8.16
2023-04-13T02:17:26.096Z,8.23
2023-04-13T02:18:27.878Z,8.09
2023-04-13T02:19:31.737Z,8.07
2023-04-13T02:20:42.898Z,8.03
2023-04-13T02:21:46.443Z,7.91
2023-04-13T02:22:49.015Z,7.91
2023-04-13T02:23:52.502Z,7.96
2023-04-13T02:24:55.053Z,8.06
2023-04-13T02:25:58.325Z,8.29
2023-04-13T02:27:01.245Z,8.18
2023-04-13T02:28:04.863Z,8.16
2023-04-13T02:29:07.968Z,8.27
2023-04-13T02:30:12.058Z,8.31
2023-04-13T02:31:17.549Z,8.34
2023-04-13T02:32:20.426Z,8.39
2023-04-13T02:33:22.980Z,8.36
2023-04-13T02:34:26.991Z,8.48
2023-04-13T02:35:29.225Z,8.57
2023-04-13T02:36:33.108Z,8.43
2023-04-13T02:37:34.750Z,8.63
2023-04-13T02:38:42.508Z,8.49
2023-04-13T02:39:44.468Z,8.50
2023-04-13T02:40:49.436Z,8.61
2023-04-13T02:41:52.780Z,8.62
2023-04-13T02:42:57.730Z,8.81
2023-04-13T02:44:00.024Z,8.87
2023-04-13T02:45:03.479Z,8.80
2023-04-13T02:46:05.700Z,8.80
2023-04-13T02:47:12.456Z,8.82
2023-04-13T02:48:14.341Z,8.73
2023-04-13T02:49:18.022Z,8.77
2023-04-13T02:50:19.858Z,8.58
2023-04-13T02:51:23.275Z,8.57
2023-04-13T02:52:25.432Z,8.62
2023-04-13T02:53:28.286Z,8.58
2023-04-13T02:54:29.963Z,8.55
2023-04-13T02:55:32.654Z,8.62
2023-04-13T02:56:35.869Z,8.65
2023-04-13T02:57:38.625Z,8.63
2023-04-13T02:58:41.816Z,8.58
2023-04-13T02:59:44.517Z,8.65
2023-04-13T03:00:48.838Z,8.72
2023-04-13T03:01:52.431Z,8.62
2023-04-13T03:02:55.847Z,8.54
2023-04-13T03:03:58.987Z,8.60
2023-04-13T03:05:03.424Z,8.27
2023-04-13T03:06:06.689Z,8.45
2023-04-13T03:07:12.968Z,8.57
2023-04-13T03:08:17.726Z,8.48
2023-04-13T03:09:19.416Z,8.48
2023-04-13T03:10:23.799Z,8.55
2023-04-13T03:11:26.505Z,8.57
2023-04-13T03:12:29.165Z,8.52
2023-04-13T03:13:31.347Z,8.52
2023-04-13T03:14:34.445Z,8.66
2023-04-13T03:15:36.325Z,8.68
2023-04-13T03:16:39.812Z,8.73
2023-04-13T03:17:41.679Z,8.67
2023-04-13T03:18:46.133Z,8.42
2023-04-13T03:19:49.248Z,8.46
2023-04-13T03:20:53.128Z,8.33
2023-04-13T03:21:54.980Z,8.30
2023-04-13T03:23:01.653Z,8.35
2023-04-13T03:24:03.485Z,8.22
2023-04-13T03:25:09.941Z,8.29
2023-04-13T03:26:13.679Z,8.45
2023-04-13T03:27:17.289Z,8.24
2023-04-13T03:28:19.701Z,8.37
2023-04-13T03:29:22.476Z,8.25
2023-04-13T03:30:24.141Z,8.37
2023-04-13T03:31:27.640Z,8.45
2023-04-13T03:32:29.566Z,8.31
2023-04-13T03:33:32.725Z,8.36
2023-04-13T03:34:43.861Z,8.39
2023-04-13T03:35:46.638Z,8.52
2023-04-13T03:36:53.852Z,8.41
2023-04-13T03:37:56.100Z,8.56
2023-04-13T03:39:00.896Z,8.72
2023-04-13T03:40:02.579Z,8.55
2023-04-13T03:41:05.972Z,8.25
2023-04-13T03:42:07.761Z,8.36
2023-04-13T03:43:10.464Z,8.48
2023-04-13T03:44:12.154Z,8.53
2023-04-13T03:45:15.144Z,8.63
2023-04-13T03:46:16.881Z,8.65
2023-04-13T03:47:20.422Z,8.61
2023-04-13T03:48:27.520Z,8.74
2023-04-13T03:49:31.535Z,8.62
2023-04-13T03:50:34.711Z,8.66
2023-04-13T03:51:41.130Z,8.64
2023-04-13T03:52:42.701Z,8.52
2023-04-13T03:53:45.337Z,8.28
2023-04-13T03:54:47.316Z,8.02
2023-04-13T03:55:50.229Z,8.13
2023-04-13T03:56:52.138Z,8.29
2023-04-13T03:57:55.378Z,8.25
2023-04-13T03:58:57.319Z,8.22
2023-04-13T04:00:00.332Z,8.37
2023-04-13T04:01:02.170Z,8.38
2023-04-13T04:02:05.043Z,8.37
2023-04-13T04:03:06.895Z,8.40
2023-04-13T04:04:10.061Z,8.34
2023-04-13T04:05:11.885Z,8.52
2023-04-13T04:06:17.776Z,8.53
2023-04-13T04:07:23.002Z,8.28
2023-04-13T04:08:25.744Z,7.94
2023-04-13T04:09:27.836Z,7.81
2023-04-13T04:10:30.928Z,7.54
2023-04-13T04:11:32.827Z,7.67
2023-04-13T04:12:36.186Z,7.54
2023-04-13T04:13:39.740Z,7.66
2023-04-13T04:14:42.645Z,7.53
2023-04-13T04:15:44.412Z,7.44
2023-04-13T04:16:47.455Z,7.22
2023-04-13T04:17:49.494Z,7.14
2023-04-13T04:18:52.974Z,7.14
2023-04-13T04:19:54.657Z,7.19
2023-04-13T04:20:57.597Z,7.21
2023-04-13T04:22:03.800Z,6.91
2023-04-13T04:23:10.265Z,6.80
2023-04-13T04:24:20.940Z,6.76
2023-04-13T04:25:22.898Z,6.84
2023-04-13T04:26:26.082Z,6.81
2023-04-13T04:27:28.268Z,6.64
2023-04-13T04:28:31.438Z,6.66
2023-04-13T04:29:34.427Z,6.60
2023-04-13T04:30:37.321Z,6.91
2023-04-13T04:31:45.370Z,6.89
2023-04-13T04:32:48.512Z,6.86
2023-04-13T04:33:51.844Z,7.04
2023-04-13T04:34:54.563Z,6.93
2023-04-13T04:36:04.757Z,7.08
2023-04-13T04:37:19.695Z,7.30
2023-04-13T04:38:23.704Z,7.20
2023-04-13T04:39:27.333Z,7.09
2023-04-13T04:40:30.080Z,7.13
2023-04-13T04:41:37.551Z,7.35
2023-04-13T04:42:40.687Z,7.46
2023-04-13T04:43:46.316Z,7.32
2023-04-13T04:44:50.360Z,7.28
2023-04-13T04:45:52.775Z,7.43
2023-04-13T04:46:59.240Z,7.40
2023-04-13T04:48:04.044Z,7.54
2023-04-13T04:49:06.977Z,7.49
2023-04-13T04:50:09.772Z,7.46
2023-04-13T04:51:14.071Z,7.35
2023-04-13T04:52:17.110Z,7.57
2023-04-13T04:53:19.803Z,7.55
2023-04-13T04:54:21.983Z,7.46
2023-04-13T04:55:24.648Z,7.74
2023-04-13T04:56:27.291Z,7.58
2023-04-13T04:57:29.668Z,7.46
2023-04-13T04:58:32.671Z,7.35
2023-04-13T04:59:36.286Z,7.63
2023-04-13T05:00:38.976Z,7.63
2023-04-13T05:01:43.313Z,7.52
2023-04-13T05:02:46.554Z,7.40
2023-04-13T05:03:48.299Z,7.22
2023-04-13T05:04:53.141Z,7.31
2023-04-13T05:05:54.833Z,7.47
2023-04-13T05:06:57.608Z,7.35
2023-04-13T05:08:01.282Z,7.25
2023-04-13T05:09:06.007Z,7.33
2023-04-13T05:10:10.671Z,7.19
2023-04-13T05:11:13.266Z,7.29
2023-04-13T05:12:15.425Z,7.39
2023-04-13T05:13:18.005Z,7.50
2023-04-13T05:14:19.798Z,7.85
2023-04-13T05:15:22.726Z,7.70
2023-04-13T05:16:24.776Z,7.80
2023-04-13T05:17:28.741Z,7.71
2023-04-13T05:18:32.989Z,7.85
2023-04-13T05:19:36.144Z,7.78
2023-04-13T05:20:40.365Z,8.08
2023-04-13T05:21:41.985Z,7.99
2023-04-13T05:22:44.673Z,7.99
2023-04-13T05:23:48.223Z,8.07
2023-04-13T05:24:51.108Z,7.87
2023-04-13T05:25:53.406Z,8.01
2023-04-13T05:26:57.351Z,8.22
2023-04-13T05:27:59.018Z,7.97
2023-04-13T05:29:03.071Z,8.21
2023-04-13T05:30:06.484Z,8.12
2023-04-13T05:31:11.208Z,8.30
2023-04-13T05:32:12.964Z,8.21
2023-04-13T05:33:17.100Z,8.15
2023-04-13T05:34:22.779Z,8.17
2023-04-13T05:35:27.997Z,8.03
2023-04-13T05:36:31.988Z,8.15
2023-04-13T05:37:33.680Z,7.78
2023-04-13T05:38:36.860Z,8.09
2023-04-13T05:39:40.101Z,8.14
2023-04-13T05:40:43.098Z,8.28
2023-04-13T05:41:45.092Z,8.30
2023-04-13T05:42:47.999Z,8.00
2023-04-13T05:43:49.630Z,7.80
2023-04-13T05:44:52.476Z,7.93
2023-04-13T05:45:55.233Z,8.09
2023-04-13T05:46:57.052Z,8.34
2023-04-13T05:47:59.837Z,8.45
2023-04-13T05:49:01.955Z,8.60
2023-04-13T05:50:05.059Z,8.51
2023-04-13T05:51:08.481Z,8.32
2023-04-13T05:52:10.534Z,8.54
2023-04-13T05:53:14.008Z,8.51
2023-04-13T05:54:17.420Z,8.33
2023-04-13T05:55:20.507Z,8.09
2023-04-13T05:56:24.027Z,7.96
2023-04-13T05:57:26.096Z,7.99
2023-04-13T05:58:31.703Z,7.99
2023-04-13T05:59:33.330Z,8.29
2023-04-13T06:00:37.690Z,8.28
2023-04-13T06:01:39.312Z,8.46
2023-04-13T06:02:43.353Z,8.53
2023-04-13T06:03:48.147Z,8.54
2023-04-13T06:04:53.727Z,8.62
2023-04-13T06:05:55.944Z,8.75
2023-04-13T06:06:59.269Z,8.69
2023-04-13T06:08:01.341Z,8.65
2023-04-13T06:09:05.692Z,8.69
2023-04-13T06:10:08.534Z,8.87
2023-04-13T06:11:12.593Z,8.74
2023-04-13T06:12:15.891Z,8.46
2023-04-13T06:13:18.685Z,8.61
2023-04-13T06:14:21.051Z,8.51
2023-04-13T06:15:24.744Z,8.35
2023-04-13T06:16:26.678Z,8.47
2023-04-13T06:17:29.412Z,8.76
2023-04-13T06:18:31.064Z,8.63
2023-04-13T06:19:33.647Z,8.74
2023-04-13T06:20:37.151Z,8.58
2023-04-13T06:21:39.825Z,8.40
2023-04-13T06:22:41.578Z,8.62
2023-04-13T06:23:44.270Z,8.40
2023-04-13T06:24:46.007Z,8.43
2023-04-13T06:25:49.265Z,8.50
2023-04-13T06:26:52.295Z,8.54
2023-04-13T06:27:55.128Z,8.55
2023-04-13T06:28:59.191Z,8.68
2023-04-13T06:30:02.654Z,8.68
2023-04-13T06:31:06.443Z,8.69
2023-04-13T06:32:08.158Z,8.97
2023-04-13T06:33:15.500Z,8.95
2023-04-13T06:34:17.768Z,9.14
2023-04-13T06:35:22.044Z,8.92
2023-04-13T06:36:23.794Z,8.60
2023-04-13T06:37:26.426Z,8.71
2023-04-13T06:38:29.162Z,8.79
2023-04-13T06:39:32.941Z,8.61
2023-04-13T06:40:35.633Z,8.84
2023-04-13T06:41:37.891Z,8.75
2023-04-13T06:42:42.451Z,8.93
2023-04-13T06:43:45.668Z,9.09
2023-04-13T06:44:47.352Z,8.92
2023-04-13T06:45:50.586Z,8.84
2023-04-13T06:46:52.294Z,9.01
2023-04-13T06:47:54.986Z,9.21
2023-04-13T06:48:57.050Z,9.29
2023-04-13T06:50:04.858Z,9.29
2023-04-13T06:51:07.440Z,9.29
2023-04-13T06:52:09.960Z,9.18
2023-04-13T06:53:12.677Z,9.15
2023-04-13T06:54:14.482Z,9.05
2023-04-13T06:55:17.686Z,9.28
2023-04-13T06:56:19.280Z,9.28
2023-04-13T06:57:21.830Z,9.46
2023-04-13T06:58:24.893Z,9.49
2023-04-13T06:59:27.459Z,9.34
2023-04-13T07:00:30.619Z,9.45
2023-04-13T07:01:34.832Z,9.62
2023-04-13T07:02:36.766Z,9.49
2023-04-13T07:03:39.996Z,9.40
2023-04-13T07:04:43.388Z,9.31
2023-04-13T07:05:46.292Z,9.45
2023-04-13T07:06:47.927Z,9.60
2023-04-13T07:07:51.428Z,9.60
2023-04-13T07:08:53.940Z,9.85
2023-04-13T07:09:55.599Z,9.66
2023-04-13T07:10:58.149Z,9.22
2023-04-13T07:12:04.343Z,9.45
2023-04-13T07:13:06.133Z,9.30
2023-04-13T07:14:10.269Z,9.22
2023-04-13T07:15:13.021Z,9.29
2023-04-13T07:16:15.028Z,9.33
2023-04-13T07:17:18.351Z,9.47
2023-04-13T07:18:21.545Z,9.60
2023-04-13T07:19:25.589Z,9.57
2023-04-13T07:20:28.161Z,9.37
2023-04-13T07:21:31.897Z,9.31
2023-04-13T07:22:35.248Z,9.15
2023-04-13T07:23:38.037Z,9.31
2023-04-13T07:24:39.727Z,9.37
2023-04-13T07:25:45.352Z,9.43
2023-04-13T07:26:47.315Z,9.26
2023-04-13T07:27:50.585Z,9.46
2023-04-13T07:28:52.266Z,9.43
2023-04-13T07:29:56.719Z,9.40
2023-04-13T07:30:58.549Z,9.41
2023-04-13T07:32:02.246Z,9.18
2023-04-13T07:33:05.053Z,9.20
2023-04-13T07:34:07.027Z,9.22
2023-04-13T07:35:10.790Z,9.29
2023-04-13T07:36:12.437Z,9.24
2023-04-13T07:37:14.939Z,9.23
2023-04-13T07:38:17.538Z,9.31
2023-04-13T07:39:20.924Z,9.18
2023-04-13T07:40:23.501Z,9.29
2023-04-13T07:41:25.198Z,9.49
2023-04-13T07:42:27.686Z,9.32
2023-04-13T07:43:30.271Z,9.21
2023-04-13T07:44:32.055Z,9.35
2023-04-13T07:45:36.028Z,9.62
2023-04-13T07:46:38.252Z,9.62
2023-04-13T07:47:41.314Z,9.75
2023-04-13T07:48:44.591Z,9.88
2023-04-13T07:49:47.400Z,9.57
2023-04-13T07:50:52.857Z,9.56
2023-04-13T07:51:54.513Z,9.59
2023-04-13T07:52:57.204Z,9.53
2023-04-13T07:53:58.852Z,9.69
2023-04-13T07:55:03.328Z,9.91
2023-04-13T07:56:05.628Z,10.04
2023-04-13T07:57:08.272Z,9.90
2023-04-13T07:58:10.866Z,9.77
2023-04-13T07:59:13.932Z,9.85
2023-04-13T08:00:20.412Z,10.08
2023-04-13T08:01:23.525Z,10.11
2023-04-13T08:02:26.613Z,10.30
2023-04-13T08:03:31.361Z,10.45
2023-04-13T08:04:34.576Z,10.53
2023-04-13T08:05:37.709Z,10.57
2023-04-13T08:06:39.558Z,10.44
2023-04-13T08:07:46.871Z,10.49
2023-04-13T08:08:48.478Z,9.98
2023-04-13T08:09:52.767Z,10.04
2023-04-13T08:10:55.480Z,10.15
2023-04-13T08:12:00.126Z,10.15
2023-04-13T08:13:02.809Z,10.08
2023-04-13T08:14:05.627Z,10.32
2023-04-13T08:15:09.786Z,10.58
2023-04-13T08:16:14.837Z,10.65
2023-04-13T08:17:17.758Z,10.60
2023-04-13T08:18:20.415Z,10.62
2023-04-13T08:19:22.644Z,10.49
2023-04-13T08:20:25.211Z,10.73
2023-04-13T08:21:28.555Z,10.84
2023-04-13T08:22:32.820Z,10.72
2023-04-13T08:23:35.466Z,10.91
2023-04-13T08:24:37.142Z,11.01
2023-04-13T08:25:40.686Z,11.08
2023-04-13T08:26:44.384Z,11.06
2023-04-13T08:27:46.979Z,10.77
2023-04-13T08:28:50.285Z,10.86
2023-04-13T08:29:55.568Z,10.85
2023-04-13T08:30:58.083Z,10.62
2023-04-13T08:31:59.678Z,10.78
2023-04-13T08:33:03.722Z,11.03
2023-04-13T08:34:06.384Z,11.07
2023-04-13T08:35:09.744Z,11.37
2023-04-13T08:37:02.677Z,11.44
2023-04-13T08:38:25.903Z,11.40
2023-04-13T08:41:05.811Z,12.07
2023-04-13T08:42:08.532Z,11.37
2023-04-13T08:43:10.095Z,11.43
2023-04-13T08:44:14.053Z,11.04
2023-04-13T08:45:16.744Z,10.79
2023-04-13T08:46:19.724Z,10.87
2023-04-13T08:47:22.851Z,11.15
2023-04-13T08:48:26.181Z,11.56
2023-04-13T08:49:28.973Z,11.47
2023-04-13T08:50:31.571Z,11.27
2023-04-13T08:51:34.692Z,11.22
2023-04-13T08:52:37.653Z,11.30
2023-04-13T08:53:39.267Z,11.26
2023-04-13T08:54:41.758Z,11.47
2023-04-13T08:55:46.211Z,11.71
2023-04-13T08:56:50.652Z,11.95
2023-04-13T08:57:57.735Z,11.91
2023-04-13T08:59:06.934Z,12.13
2023-04-13T09:00:16.069Z,12.13
2023-04-13T09:01:18.909Z,11.99
2023-04-13T09:02:24.368Z,12.13
2023-04-13T09:03:30.813Z,12.26
2023-04-13T09:04:38.883Z,12.57
2023-04-13T09:05:43.325Z,11.97
2023-04-13T09:06:50.178Z,11.97
2023-04-13T09:07:57.355Z,12.04
2023-04-13T09:09:01.335Z,11.95
2023-04-13T09:10:06.084Z,11.99
2023-04-13T09:11:09.726Z,11.92
2023-04-13T09:12:14.568Z,12.01
2023-04-13T09:13:17.042Z,12.15
2023-04-13T09:14:20.068Z,12.26
2023-04-13T09:15:24.116Z,12.19
2023-04-13T09:16:26.441Z,12.19
2023-04-13T09:17:32.185Z,12.48
2023-04-13T09:18:34.712Z,12.34
2023-04-13T09:19:37.725Z,12.45
2023-04-13T09:20:40.638Z,12.46
2023-04-13T09:21:44.987Z,12.62
2023-04-13T09:22:46.740Z,12.56
2023-04-13T09:23:56.795Z,12.89
2023-04-13T09:24:59.332Z,12.84
2023-04-13T09:26:05.196Z,13.23
2023-04-13T09:27:17.871Z,13.18
2023-04-13T09:28:21.335Z,13.10
2023-04-13T09:29:23.807Z,12.87
2023-04-13T09:30:27.143Z,13.05
2023-04-13T09:31:30.270Z,13.12
2023-04-13T09:32:32.542Z,12.96
2023-04-13T09:33:45.590Z,12.76
2023-04-13T09:34:58.646Z,12.66
2023-04-13T09:36:10.579Z,12.03
2023-04-13T09:37:32.717Z,11.89
2023-04-13T09:38:35.715Z,12.09
2023-04-13T09:39:38.198Z,12.29
2023-04-13T09:40:49.021Z,12.57
2023-04-13T09:41:52.995Z,12.72
2023-04-13T09:42:56.628Z,12.38
2023-04-13T09:44:00.903Z,12.26
2023-04-13T09:45:02.431Z,12.29
2023-04-13T09:46:05.639Z,12.42
2023-04-13T09:47:08.628Z,12.54
2023-04-13T09:48:18.722Z,12.10
2023-04-13T09:49:25.756Z,12.18
2023-04-13T09:50:28.335Z,12.11
2023-04-13T09:51:38.049Z,12.21
2023-04-13T09:52:40.541Z,12.36
2023-04-13T09:53:46.408Z,12.18
2023-04-13T09:54:52.607Z,11.89
2023-04-13T09:55:59.764Z,11.95
2023-04-13T09:57:05.123Z,11.99
2023-04-13T09:58:11.607Z,12.16
2023-04-13T09:59:15.444Z,12.35
2023-04-13T10:00:21.075Z,12.03
2023-04-13T10:01:25.305Z,12.28
2023-04-13T10:02:27.847Z,12.31
2023-04-13T10:03:32.219Z,12.70
2023-04-13T10:04:35.725Z,12.81
2023-04-13T10:05:51.104Z,13.09
2023-04-13T10:07:00.920Z,13.22
2023-04-13T10:08:02.633Z,13.09
2023-04-13T10:09:05.982Z,12.92
2023-04-13T10:10:09.038Z,12.71
2023-04-13T10:11:14.387Z,12.64
2023-04-13T10:12:17.798Z,12.77
2023-04-13T10:13:25.439Z,12.72
2023-04-13T10:14:35.426Z,12.75
2023-04-13T10:15:52.411Z,12.81
2023-04-13T10:17:27.886Z,13.18
2023-04-13T10:18:39.904Z,13.38
2023-04-13T10:19:46.739Z,13.42
2023-04-13T10:20:50.263Z,13.34
2023-04-13T10:21:54.804Z,13.61
2023-04-13T10:22:59.143Z,13.75
2023-04-13T10:24:01.424Z,13.66
2023-04-13T10:25:06.908Z,13.76
2023-04-13T10:26:09.674Z,13.41
2023-04-13T10:27:14.752Z,13.48
2023-04-13T10:28:16.728Z,13.53
2023-04-13T10:29:29.609Z,13.37
2023-04-13T10:30:32.220Z,13.38
2023-04-13T10:31:38.012Z,13.13
2023-04-13T10:32:41.015Z,13.00
2023-04-13T10:33:50.062Z,12.95
2023-04-13T10:34:53.399Z,12.99
2023-04-13T10:35:57.179Z,13.16
2023-04-13T10:37:03.849Z,12.57
2023-04-13T10:38:05.463Z,12.77
2023-04-13T10:39:08.287Z,13.11
2023-04-13T10:40:13.394Z,13.34
2023-04-13T10:41:24.772Z,12.72
2023-04-13T10:42:28.036Z,13.20
2023-04-13T10:43:32.219Z,13.42
2023-04-13T10:44:46.593Z,13.68
2023-04-13T10:45:48.195Z,13.85
2023-04-13T10:46:51.971Z,13.73
2023-04-13T10:47:54.422Z,13.02
2023-04-13T10:49:00.136Z,12.58
2023-04-13T10:50:04.477Z,12.57
2023-04-13T10:51:07.083Z,12.35
2023-04-13T10:52:10.664Z,12.52
2023-04-13T10:53:13.257Z,12.77
2023-04-13T10:54:16.088Z,12.98
2023-04-13T10:55:19.807Z,13.11
2023-04-13T10:56:22.404Z,13.60
2023-04-13T10:57:24.979Z,13.02
2023-04-13T10:58:32.766Z,12.34
2023-04-13T10:59:55.502Z,12.22
2023-04-13T11:01:03.329Z,12.56
2023-04-13T11:02:06.721Z,12.70
2023-04-13T11:03:09.539Z,12.77
2023-04-13T11:04:16.778Z,12.89
2023-04-13T11:05:22.597Z,12.66
2023-04-13T11:06:24.247Z,12.43
2023-04-13T11:07:27.164Z,12.24
2023-04-13T11:08:30.555Z,12.24
2023-04-13T11:09:32.277Z,11.97
2023-04-13T11:10:35.027Z,11.91
2023-04-13T11:11:37.410Z,12.10
2023-04-13T11:12:40.355Z,12.13
2023-04-13T11:13:47.216Z,11.86
2023-04-13T11:14:50.567Z,11.83
2023-04-13T11:16:01.534Z,11.89
2023-04-13T11:17:06.869Z,12.21
2023-04-13T11:18:09.525Z,11.99
2023-04-13T11:19:11.356Z,12.38
2023-04-13T11:20:15.637Z,12.37
2023-04-13T11:21:18.885Z,12.24
2023-04-13T11:22:23.989Z,12.54
2023-04-13T11:23:26.566Z,12.42
2023-04-13T11:24:29.803Z,12.22
2023-04-13T11:25:33.610Z,12.24
2023-04-13T11:26:38.823Z,12.59
2023-04-13T11:27:40.811Z,12.68
2023-04-13T11:28:46.151Z,12.25
2023-04-13T11:29:57.911Z,12.39
2023-04-13T11:31:01.509Z,11.95
2023-04-13T11:32:05.840Z,12.01
2023-04-13T11:33:09.863Z,12.21
2023-04-13T11:34:13.097Z,12.27
2023-04-13T11:35:14.868Z,12.31
2023-04-13T11:36:19.962Z,12.59
2023-04-13T11:37:21.773Z,12.72
2023-04-13T11:38:24.750Z,12.82
2023-04-13T11:39:26.491Z,12.70
2023-04-13T11:40:29.162Z,12.24
2023-04-13T11:41:32.821Z,11.97
2023-04-13T11:42:39.338Z,12.16
2023-04-13T11:43:42.485Z,12.32
2023-04-13T11:44:46.342Z,12.24
2023-04-13T11:45:49.085Z,12.00
2023-04-13T11:46:53.033Z,12.44
2023-04-13T11:47:59.168Z,12.80
2023-04-13T11:49:01.762Z,12.91
2023-04-13T11:50:05.378Z,13.03
2023-04-13T11:51:07.560Z,13.15
2023-04-13T11:52:10.154Z,13.16
2023-04-13T11:53:11.864Z,12.89
2023-04-13T11:54:14.372Z,13.07
2023-04-13T11:55:23.309Z,12.83
2023-04-13T11:56:26.802Z,13.11
2023-04-13T11:57:29.040Z,13.51
2023-04-13T11:58:32.697Z,13.56
2023-04-13T11:59:36.270Z,13.67
2023-04-13T12:00:41.217Z,13.79
2023-04-13T12:01:50.272Z,13.72
2023-04-13T12:03:02.448Z,13.17
2023-04-13T12:04:14.684Z,13.42
2023-04-13T12:05:25.457Z,12.95
2023-04-13T12:06:27.932Z,12.99
2023-04-13T12:07:33.435Z,13.08
2023-04-13T12:08:36.574Z,13.15
2023-04-13T12:11:24.508Z,13.16
2023-04-13T12:13:35.751Z,13.24
2023-04-13T12:14:57.355Z,13.59
2023-04-13T12:17:25.651Z,14.23
2023-04-13T12:18:36.555Z,13.59
2023-04-13T12:19:43.690Z,13.31
2023-04-13T12:20:48.611Z,13.27
2023-04-13T12:21:52.542Z,13.48
2023-04-13T12:23:04.640Z,13.24
2023-04-13T12:24:15.567Z,13.36
2023-04-13T12:25:20.440Z,13.18
2023-04-13T12:27:10.049Z,13.31
2023-04-13T12:27:50.532Z,13.97
2023-04-13T12:28:56.475Z,15.02
2023-04-13T12:30:03.629Z,15.96
2023-04-13T12:31:07.388Z,16.10
2023-04-13T12:32:13.897Z,16.12
2023-04-13T12:33:15.559Z,16.43
2023-04-13T12:34:20.799Z,16.05
2023-04-13T12:35:22.760Z,15.77
2023-04-13T12:36:28.430Z,15.60
2023-04-13T12:37:30.000Z,15.58
2023-04-13T12:38:33.196Z,15.34
2023-04-13T12:39:35.795Z,14.73
2023-04-13T12:40:38.497Z,14.71
2023-04-13T12:41:40.092Z,14.83
2023-04-13T12:42:44.409Z,14.76
2023-04-13T12:43:46.924Z,15.52
2023-04-13T12:44:48.470Z,16.01
2023-04-13T12:45:51.600Z,16.49
2023-04-13T12:46:53.235Z,16.59
2023-04-13T12:47:55.776Z,16.90
2023-04-13T12:48:58.590Z,15.84
2023-04-13T12:50:03.344Z,15.92
2023-04-13T12:51:06.506Z,16.44
2023-04-13T12:52:07.979Z,16.52
2023-04-13T12:53:11.992Z,16.20
2023-04-13T12:54:14.618Z,15.26
2023-04-13T12:55:17.628Z,15.31
2023-04-13T12:56:20.139Z,15.57
2023-04-13T12:57:21.677Z,15.57
2023-04-13T12:58:24.432Z,15.89
2023-04-13T12:59:26.191Z,15.04
2023-04-13T13:00:28.741Z,14.64
2023-04-13T13:01:31.388Z,13.82
2023-04-13T13:02:33.177Z,14.04
2023-04-13T13:03:36.760Z,14.23
2023-04-13T13:04:39.565Z,14.68
2023-04-13T13:05:42.876Z,14.87
2023-04-13T13:06:45.860Z,14.99
2023-04-13T13:07:48.705Z,14.79
2023-04-13T13:08:50.602Z,14.79
2023-04-13T13:09:53.044Z,14.19
2023-04-13T13:10:55.892Z,13.99
2023-04-13T13:11:57.979Z,14.03
2023-04-13T13:13:03.296Z,13.92
2023-04-13T13:14:06.274Z,14.17
2023-04-13T13:15:10.548Z,14.52
2023-04-13T13:16:13.981Z,14.67
2023-04-13T13:17:15.589Z,14.75
2023-04-13T13:18:18.062Z,14.51
2023-04-13T13:19:20.604Z,13.79
2023-04-13T13:20:22.329Z,13.83
2023-04-13T13:21:26.892Z,13.96
2023-04-13T13:22:29.269Z,13.92
2023-04-13T13:23:31.723Z,13.84
2023-04-13T13:24:33.865Z,13.89
2023-04-13T13:25:38.087Z,13.87
2023-04-13T13:28:52.758Z,13.52
2023-04-13T13:29:57.260Z,13.35
2023-04-13T13:30:59.726Z,13.68
2023-04-13T13:32:02.447Z,13.62
2023-04-13T13:33:04.783Z,13.66
2023-04-13T13:34:07.296Z,13.82
2023-04-13T13:35:10.632Z,13.94
2023-04-13T13:36:14.249Z,14.26
2023-04-13T13:37:17.735Z,14.60
2023-04-13T13:38:20.191Z,14.73
2023-04-13T13:39:22.355Z,14.61
2023-04-13T13:40:24.776Z,14.67
2023-04-13T13:41:26.461Z,14.59
2023-04-13T13:42:37.436Z,14.60
2023-04-13T13:43:46.790Z,14.48
2023-04-13T13:44:48.850Z,14.45
2023-04-13T13:45:51.654Z,14.79
2023-04-13T13:46:53.486Z,14.90
2023-04-13T13:47:58.350Z,14.87
2023-04-13T13:49:00.255Z,14.65
2023-04-13T13:50:02.933Z,14.46
2023-04-13T13:51:06.271Z,14.50
2023-04-13T13:52:09.936Z,14.57
2023-04-13T13:53:12.882Z,14.83
2023-04-13T13:54:15.806Z,14.92
2023-04-13T13:55:19.756Z,14.73
2023-04-13T13:56:22.273Z,14.77
2023-04-13T13:57:23.857Z,14.71
2023-04-13T13:58:26.362Z,14.81
2023-04-13T13:59:27.952Z,14.93
2023-04-13T14:00:31.112Z,15.10
2023-04-13T14:01:32.817Z,15.24
2023-04-13T14:02:35.503Z,15.29
2023-04-13T14:03:37.605Z,15.31
2023-04-13T14:04:40.821Z,15.31
2023-04-13T14:05:44.038Z,15.19
2023-04-13T14:06:47.411Z,15.20
2023-04-13T14:07:51.866Z,15.00
2023-04-13T14:08:55.792Z,14.91
2023-04-13T14:09:58.299Z,15.07